sensor_id;sensor_type;location;lat;lon;timestamp;temperature;humidity
70708;SHT30;58277;47.316;18.908;2023-02-11T00:01:52;-1.10;72.81
70708;SHT30;58277;47.316;18.908;2023-02-11T00:04:15;-1.08;72.76
70708;SHT30;58277;47.316;18.908;2023-02-11T00:06:37;-1.03;72.67
70708;SHT30;58277;47.316;18.908;2023-02-11T00:09:00;-1.11;72.79
70708;SHT30;58277;47.316;18.908;2023-02-11T00:11:24;-1.11;73.04
70708;SHT30;58277;47.316;18.908;2023-02-11T00:13:51;-1.21;73.57
70708;SHT30;58277;47.316;18.908;2023-02-11T00:16:17;-1.21;73.97
70708;SHT30;58277;47.316;18.908;2023-02-11T00:18:40;-1.31;74.12
70708;SHT30;58277;47.316;18.908;2023-02-11T00:21:17;-1.35;74.36
70708;SHT30;58277;47.316;18.908;2023-02-11T00:23:40;-1.32;74.31
70708;SHT30;58277;47.316;18.908;2023-02-11T00:26:10;-1.40;74.33
70708;SHT30;58277;47.316;18.908;2023-02-11T00:28:34;-1.44;74.54
70708;SHT30;58277;47.316;18.908;2023-02-11T00:30:57;-1.44;74.40
70708;SHT30;58277;47.316;18.908;2023-02-11T00:33:20;-1.50;74.50
70708;SHT30;58277;47.316;18.908;2023-02-11T00:35:43;-1.51;74.59
70708;SHT30;58277;47.316;18.908;2023-02-11T00:38:06;-1.56;74.69
70708;SHT30;58277;47.316;18.908;2023-02-11T00:40:29;-1.55;74.80
70708;SHT30;58277;47.316;18.908;2023-02-11T00:42:52;-1.61;74.93
70708;SHT30;58277;47.316;18.908;2023-02-11T00:45:14;-1.68;75.46
70708;SHT30;58277;47.316;18.908;2023-02-11T00:47:37;-1.69;75.52
70708;SHT30;58277;47.316;18.908;2023-02-11T00:50:00;-1.76;75.99
70708;SHT30;58277;47.316;18.908;2023-02-11T00:52:26;-1.79;76.23
70708;SHT30;58277;47.316;18.908;2023-02-11T00:54:48;-1.78;76.20
70708;SHT30;58277;47.316;18.908;2023-02-11T00:57:11;-1.85;76.46
70708;SHT30;58277;47.316;18.908;2023-02-11T00:59:34;-1.85;76.57
70708;SHT30;58277;47.316;18.908;2023-02-11T01:01:56;-1.86;76.43
70708;SHT30;58277;47.316;18.908;2023-02-11T01:04:19;-1.87;76.57
70708;SHT30;58277;47.316;18.908;2023-02-11T01:06:42;-1.87;76.53
70708;SHT30;58277;47.316;18.908;2023-02-11T01:09:04;-1.87;76.57
70708;SHT30;58277;47.316;18.908;2023-02-11T01:11:29;-1.89;76.46
70708;SHT30;58277;47.316;18.908;2023-02-11T01:13:52;-1.90;76.31
70708;SHT30;58277;47.316;18.908;2023-02-11T01:16:16;-1.86;76.26
70708;SHT30;58277;47.316;18.908;2023-02-11T01:18:40;-1.89;75.98
70708;SHT30;58277;47.316;18.908;2023-02-11T01:21:04;-1.93;76.35
70708;SHT30;58277;47.316;18.908;2023-02-11T01:23:27;-1.89;75.97
70708;SHT30;58277;47.316;18.908;2023-02-11T01:25:49;-1.80;75.78
70708;SHT30;58277;47.316;18.908;2023-02-11T01:28:21;-1.87;76.11
70708;SHT30;58277;47.316;18.908;2023-02-11T01:30:45;-2.03;76.76
70708;SHT30;58277;47.316;18.908;2023-02-11T01:33:08;-2.07;77.00
70708;SHT30;58277;47.316;18.908;2023-02-11T01:35:31;-2.04;77.03
70708;SHT30;58277;47.316;18.908;2023-02-11T01:37:54;-2.03;76.90
70708;SHT30;58277;47.316;18.908;2023-02-11T01:40:19;-2.04;76.89
70708;SHT30;58277;47.316;18.908;2023-02-11T01:42:42;-2.09;76.82
70708;SHT30;58277;47.316;18.908;2023-02-11T01:48:07;-2.15;77.09
70708;SHT30;58277;47.316;18.908;2023-02-11T01:50:30;-2.09;76.99
70708;SHT30;58277;47.316;18.908;2023-02-11T01:52:53;-2.15;77.06
70708;SHT30;58277;47.316;18.908;2023-02-11T01:55:38;-2.15;76.85
70708;SHT30;58277;47.316;18.908;2023-02-11T01:58:20;-2.28;77.54
70708;SHT30;58277;47.316;18.908;2023-02-11T02:00:44;-2.36;77.60
70708;SHT30;58277;47.316;18.908;2023-02-11T02:03:11;-2.42;77.91
70708;SHT30;58277;47.316;18.908;2023-02-11T02:05:52;-2.47;78.07
70708;SHT30;58277;47.316;18.908;2023-02-11T02:08:37;-2.47;78.13
70708;SHT30;58277;47.316;18.908;2023-02-11T02:11:02;-2.52;78.37
70708;SHT30;58277;47.316;18.908;2023-02-11T02:13:26;-2.54;78.46
70708;SHT30;58277;47.316;18.908;2023-02-11T02:15:56;-2.48;78.44
70708;SHT30;58277;47.316;18.908;2023-02-11T02:40:13;-2.49;77.50
70708;SHT30;58277;47.316;18.908;2023-02-11T02:42:38;-2.44;77.17
70708;SHT30;58277;47.316;18.908;2023-02-11T02:45:02;-2.38;77.28
70708;SHT30;58277;47.316;18.908;2023-02-11T02:47:25;-2.36;76.89
70708;SHT30;58277;47.316;18.908;2023-02-11T02:49:48;-2.42;76.58
70708;SHT30;58277;47.316;18.908;2023-02-11T02:52:24;-2.51;76.59
70708;SHT30;58277;47.316;18.908;2023-02-11T03:02:33;-3.14;78.09
70708;SHT30;58277;47.316;18.908;2023-02-11T03:10:31;-3.52;79.89
70708;SHT30;58277;47.316;18.908;2023-02-11T03:12:55;-3.41;79.62
70708;SHT30;58277;47.316;18.908;2023-02-11T03:15:20;-3.25;79.07
70708;SHT30;58277;47.316;18.908;2023-02-11T03:17:47;-3.17;79.22
70708;SHT30;58277;47.316;18.908;2023-02-11T03:20:12;-3.17;79.22
70708;SHT30;58277;47.316;18.908;2023-02-11T03:25:09;-3.04;78.68
70708;SHT30;58277;47.316;18.908;2023-02-11T03:32:32;-2.79;77.93
70708;SHT30;58277;47.316;18.908;2023-02-11T03:35:09;-2.95;78.28
70708;SHT30;58277;47.316;18.908;2023-02-11T03:37:42;-2.75;78.22
70708;SHT30;58277;47.316;18.908;2023-02-11T03:40:09;-2.69;77.73
70708;SHT30;58277;47.316;18.908;2023-02-11T03:42:42;-2.70;77.76
70708;SHT30;58277;47.316;18.908;2023-02-11T03:45:09;-2.65;77.75
70708;SHT30;58277;47.316;18.908;2023-02-11T03:47:34;-2.61;77.36
70708;SHT30;58277;47.316;18.908;2023-02-11T03:49:59;-2.54;76.94
70708;SHT30;58277;47.316;18.908;2023-02-11T03:52:24;-2.64;77.14
70708;SHT30;58277;47.316;18.908;2023-02-11T03:54:52;-2.62;77.51
70708;SHT30;58277;47.316;18.908;2023-02-11T03:57:17;-2.47;77.15
70708;SHT30;58277;47.316;18.908;2023-02-11T03:59:57;-2.51;76.77
70708;SHT30;58277;47.316;18.908;2023-02-11T04:02:21;-2.44;76.60
70708;SHT30;58277;47.316;18.908;2023-02-11T04:04:45;-2.42;76.12
70708;SHT30;58277;47.316;18.908;2023-02-11T04:07:10;-2.51;76.51
70708;SHT30;58277;47.316;18.908;2023-02-11T04:09:33;-2.54;76.63
70708;SHT30;58277;47.316;18.908;2023-02-11T04:11:56;-2.76;77.62
70708;SHT30;58277;47.316;18.908;2023-02-11T04:14:19;-2.86;77.97
70708;SHT30;58277;47.316;18.908;2023-02-11T04:16:42;-2.87;78.12
70708;SHT30;58277;47.316;18.908;2023-02-11T04:19:04;-2.93;78.29
70708;SHT30;58277;47.316;18.908;2023-02-11T04:21:27;-2.93;78.26
70708;SHT30;58277;47.316;18.908;2023-02-11T04:23:50;-2.95;78.45
70708;SHT30;58277;47.316;18.908;2023-02-11T04:26:12;-2.95;78.16
70708;SHT30;58277;47.316;18.908;2023-02-11T04:28:35;-2.95;78.18
70708;SHT30;58277;47.316;18.908;2023-02-11T04:30:58;-2.96;78.06
70708;SHT30;58277;47.316;18.908;2023-02-11T04:33:21;-2.87;77.97
70708;SHT30;58277;47.316;18.908;2023-02-11T04:35:44;-2.61;77.06
70708;SHT30;58277;47.316;18.908;2023-02-11T04:38:07;-2.55;76.44
70708;SHT30;58277;47.316;18.908;2023-02-11T04:40:29;-2.58;76.44
70708;SHT30;58277;47.316;18.908;2023-02-11T04:42:52;-2.64;76.77
70708;SHT30;58277;47.316;18.908;2023-02-11T04:45:15;-2.73;76.94
70708;SHT30;58277;47.316;18.908;2023-02-11T04:47:38;-2.59;76.41
70708;SHT30;58277;47.316;18.908;2023-02-11T04:50:01;-2.52;76.14
70708;SHT30;58277;47.316;18.908;2023-02-11T04:52:24;-2.55;76.55
70708;SHT30;58277;47.316;18.908;2023-02-11T04:54:46;-2.55;76.01
70708;SHT30;58277;47.316;18.908;2023-02-11T04:57:09;-2.54;75.93
70708;SHT30;58277;47.316;18.908;2023-02-11T04:59:32;-2.59;75.68
70708;SHT30;58277;47.316;18.908;2023-02-11T05:01:54;-2.59;75.84
70708;SHT30;58277;47.316;18.908;2023-02-11T05:04:17;-2.70;76.05
70708;SHT30;58277;47.316;18.908;2023-02-11T05:06:40;-2.80;77.09
70708;SHT30;58277;47.316;18.908;2023-02-11T05:09:02;-3.04;78.01
70708;SHT30;58277;47.316;18.908;2023-02-11T05:11:25;-3.07;78.74
70708;SHT30;58277;47.316;18.908;2023-02-11T05:13:48;-2.97;78.49
70708;SHT30;58277;47.316;18.908;2023-02-11T05:16:11;-2.92;78.13
70708;SHT30;58277;47.316;18.908;2023-02-11T05:18:37;-2.96;78.06
70708;SHT30;58277;47.316;18.908;2023-02-11T05:21:05;-3.13;78.72
70708;SHT30;58277;47.316;18.908;2023-02-11T05:23:27;-3.03;78.86
70708;SHT30;58277;47.316;18.908;2023-02-11T05:25:50;-3.01;78.26
70708;SHT30;58277;47.316;18.908;2023-02-11T05:28:13;-2.92;77.15
70708;SHT30;58277;47.316;18.908;2023-02-11T05:30:36;-2.93;76.86
70708;SHT30;58277;47.316;18.908;2023-02-11T05:32:59;-3.07;77.26
70708;SHT30;58277;47.316;18.908;2023-02-11T05:35:22;-2.99;77.20
70708;SHT30;58277;47.316;18.908;2023-02-11T05:37:45;-3.08;77.66
70708;SHT30;58277;47.316;18.908;2023-02-11T05:40:08;-3.20;78.17
70708;SHT30;58277;47.316;18.908;2023-02-11T05:42:31;-3.10;78.05
70708;SHT30;58277;47.316;18.908;2023-02-11T05:44:53;-3.03;77.70
70708;SHT30;58277;47.316;18.908;2023-02-11T05:47:16;-2.97;77.82
70708;SHT30;58277;47.316;18.908;2023-02-11T05:49:39;-2.95;77.79
70708;SHT30;58277;47.316;18.908;2023-02-11T05:52:02;-2.99;77.63
70708;SHT30;58277;47.316;18.908;2023-02-11T05:54:24;-2.85;77.06
70708;SHT30;58277;47.316;18.908;2023-02-11T05:56:47;-2.90;77.01
70708;SHT30;58277;47.316;18.908;2023-02-11T05:59:12;-2.97;76.92
70708;SHT30;58277;47.316;18.908;2023-02-11T06:01:35;-2.97;76.83
70708;SHT30;58277;47.316;18.908;2023-02-11T06:03:58;-2.99;77.11
70708;SHT30;58277;47.316;18.908;2023-02-11T06:06:20;-2.89;76.98
70708;SHT30;58277;47.316;18.908;2023-02-11T06:08:43;-2.82;76.98
70708;SHT30;58277;47.316;18.908;2023-02-11T06:11:06;-2.62;76.32
70708;SHT30;58277;47.316;18.908;2023-02-11T06:13:28;-2.66;75.98
70708;SHT30;58277;47.316;18.908;2023-02-11T06:15:55;-2.52;76.12
70708;SHT30;58277;47.316;18.908;2023-02-11T06:18:18;-2.38;75.43
70708;SHT30;58277;47.316;18.908;2023-02-11T06:20:41;-2.21;74.84
70708;SHT30;58277;47.316;18.908;2023-02-11T06:23:03;-2.09;74.38
70708;SHT30;58277;47.316;18.908;2023-02-11T06:25:26;-1.90;73.66
70708;SHT30;58277;47.316;18.908;2023-02-11T06:27:49;-1.73;73.24
70708;SHT30;58277;47.316;18.908;2023-02-11T06:30:12;-1.66;73.14
70708;SHT30;58277;47.316;18.908;2023-02-11T06:32:35;-1.41;72.24
70708;SHT30;58277;47.316;18.908;2023-02-11T06:35:06;-1.21;71.52
70708;SHT30;58277;47.316;18.908;2023-02-11T06:37:33;-1.23;71.49
70708;SHT30;58277;47.316;18.908;2023-02-11T06:39:56;-1.01;71.11
70708;SHT30;58277;47.316;18.908;2023-02-11T06:42:19;-0.87;70.97
70708;SHT30;58277;47.316;18.908;2023-02-11T06:44:41;-0.62;70.41
70708;SHT30;58277;47.316;18.908;2023-02-11T06:47:04;-0.31;69.13
70708;SHT30;58277;47.316;18.908;2023-02-11T06:49:27;0.14;67.51
70708;SHT30;58277;47.316;18.908;2023-02-11T06:51:50;0.42;67.12
70708;SHT30;58277;47.316;18.908;2023-02-11T06:54:12;0.27;65.39
70708;SHT30;58277;47.316;18.908;2023-02-11T06:56:38;-0.35;66.92
70708;SHT30;58277;47.316;18.908;2023-02-11T06:59:01;-0.42;67.66
70708;SHT30;58277;47.316;18.908;2023-02-11T07:01:25;0.01;67.07
70708;SHT30;58277;47.316;18.908;2023-02-11T07:03:49;0.45;66.13
70708;SHT30;58277;47.316;18.908;2023-02-11T07:06:15;1.07;64.25
70708;SHT30;58277;47.316;18.908;2023-02-11T07:08:38;1.64;62.29
70708;SHT30;58277;47.316;18.908;2023-02-11T07:11:12;1.95;61.75
70708;SHT30;58277;47.316;18.908;2023-02-11T07:13:35;2.26;61.07
70708;SHT30;58277;47.316;18.908;2023-02-11T07:16:03;2.52;60.60
70708;SHT30;58277;47.316;18.908;2023-02-11T07:18:26;2.41;60.61
70708;SHT30;58277;47.316;18.908;2023-02-11T07:20:49;1.83;61.38
70708;SHT30;58277;47.316;18.908;2023-02-11T07:23:12;1.34;63.25
70708;SHT30;58277;47.316;18.908;2023-02-11T07:25:35;1.12;63.80
70708;SHT30;58277;47.316;18.908;2023-02-11T07:27:58;0.95;64.77
70708;SHT30;58277;47.316;18.908;2023-02-11T07:30:20;0.96;64.34
70708;SHT30;58277;47.316;18.908;2023-02-11T07:32:43;0.96;64.53
70708;SHT30;58277;47.316;18.908;2023-02-11T07:35:06;1.14;64.41
70708;SHT30;58277;47.316;18.908;2023-02-11T07:37:29;1.10;64.92
70708;SHT30;58277;47.316;18.908;2023-02-11T07:39:51;1.43;64.38
70708;SHT30;58277;47.316;18.908;2023-02-11T07:42:14;1.35;64.53
70708;SHT30;58277;47.316;18.908;2023-02-11T07:44:37;1.71;63.45
70708;SHT30;58277;47.316;18.908;2023-02-11T07:46:59;1.71;63.27
70708;SHT30;58277;47.316;18.908;2023-02-11T07:49:23;1.71;63.63
70708;SHT30;58277;47.316;18.908;2023-02-11T07:51:45;1.92;62.98
70708;SHT30;58277;47.316;18.908;2023-02-11T07:54:10;2.13;62.40
70708;SHT30;58277;47.316;18.908;2023-02-11T07:56:33;1.98;62.09
70708;SHT30;58277;47.316;18.908;2023-02-11T07:59:00;2.13;61.96
70708;SHT30;58277;47.316;18.908;2023-02-11T08:01:24;1.73;63.65
70708;SHT30;58277;47.316;18.908;2023-02-11T08:03:50;1.93;63.12
70708;SHT30;58277;47.316;18.908;2023-02-11T08:06:14;2.19;62.60
70708;SHT30;58277;47.316;18.908;2023-02-11T08:08:38;1.93;62.96
70708;SHT30;58277;47.316;18.908;2023-02-11T08:11:27;2.07;63.54
70708;SHT30;58277;47.316;18.908;2023-02-11T08:13:50;2.09;62.95
70708;SHT30;58277;47.316;18.908;2023-02-11T08:16:20;2.16;63.05
70708;SHT30;58277;47.316;18.908;2023-02-11T08:18:43;2.44;62.48
70708;SHT30;58277;47.316;18.908;2023-02-11T08:21:08;2.62;62.21
70708;SHT30;58277;47.316;18.908;2023-02-11T08:23:31;2.38;62.62
70708;SHT30;58277;47.316;18.908;2023-02-11T08:25:54;2.66;61.01
70708;SHT30;58277;47.316;18.908;2023-02-11T08:28:16;2.64;61.40
70708;SHT30;58277;47.316;18.908;2023-02-11T08:30:39;2.55;61.92
70708;SHT30;58277;47.316;18.908;2023-02-11T08:33:02;2.74;61.14
70708;SHT30;58277;47.316;18.908;2023-02-11T08:35:24;3.09;60.48
70708;SHT30;58277;47.316;18.908;2023-02-11T08:37:47;3.22;59.77
70708;SHT30;58277;47.316;18.908;2023-02-11T08:40:10;3.20;59.83
70708;SHT30;58277;47.316;18.908;2023-02-11T08:42:33;3.03;60.56
70708;SHT30;58277;47.316;18.908;2023-02-11T08:44:55;3.28;60.00
70708;SHT30;58277;47.316;18.908;2023-02-11T08:47:18;3.60;59.22
70708;SHT30;58277;47.316;18.908;2023-02-11T08:49:41;3.68;58.81
70708;SHT30;58277;47.316;18.908;2023-02-11T08:52:05;3.82;58.45
70708;SHT30;58277;47.316;18.908;2023-02-11T08:54:28;3.82;58.71
70708;SHT30;58277;47.316;18.908;2023-02-11T08:56:51;3.86;58.54
70708;SHT30;58277;47.316;18.908;2023-02-11T08:59:14;3.96;58.73
70708;SHT30;58277;47.316;18.908;2023-02-11T09:01:38;3.95;58.91
70708;SHT30;58277;47.316;18.908;2023-02-11T09:04:01;3.95;59.09
70708;SHT30;58277;47.316;18.908;2023-02-11T09:06:25;3.85;58.86
70708;SHT30;58277;47.316;18.908;2023-02-11T09:08:50;3.92;59.20
70708;SHT30;58277;47.316;18.908;2023-02-11T09:11:13;3.91;59.41
70708;SHT30;58277;47.316;18.908;2023-02-11T09:13:36;3.54;60.65
70708;SHT30;58277;47.316;18.908;2023-02-11T09:16:00;3.74;60.95
70708;SHT30;58277;47.316;18.908;2023-02-11T09:18:24;3.88;60.96
70708;SHT30;58277;47.316;18.908;2023-02-11T09:20:46;3.92;60.87
70708;SHT30;58277;47.316;18.908;2023-02-11T09:23:09;3.81;61.35
70708;SHT30;58277;47.316;18.908;2023-02-11T09:25:32;3.93;60.50
70708;SHT30;58277;47.316;18.908;2023-02-11T09:27:55;3.86;60.21
70708;SHT30;58277;47.316;18.908;2023-02-11T09:30:18;4.01;59.96
70708;SHT30;58277;47.316;18.908;2023-02-11T09:32:41;4.43;59.13
70708;SHT30;58277;47.316;18.908;2023-02-11T09:35:04;4.68;58.62
70708;SHT30;58277;47.316;18.908;2023-02-11T09:37:27;4.65;58.25
70708;SHT30;58277;47.316;18.908;2023-02-11T09:39:49;5.19;56.71
70708;SHT30;58277;47.316;18.908;2023-02-11T09:45:00;5.30;56.86
70708;SHT30;58277;47.316;18.908;2023-02-11T09:47:27;5.39;56.74
70708;SHT30;58277;47.316;18.908;2023-02-11T09:50:05;5.54;56.62
70708;SHT30;58277;47.316;18.908;2023-02-11T09:55:25;5.84;55.41
70708;SHT30;58277;47.316;18.908;2023-02-11T09:57:48;5.77;54.75
70708;SHT30;58277;47.316;18.908;2023-02-11T10:00:36;5.95;53.69
70708;SHT30;58277;47.316;18.908;2023-02-11T10:03:38;6.23;53.29
70708;SHT30;58277;47.316;18.908;2023-02-11T10:11:49;6.49;52.43
70708;SHT30;58277;47.316;18.908;2023-02-11T10:14:51;6.66;51.35
70708;SHT30;58277;47.316;18.908;2023-02-11T10:25:38;6.83;49.61
70708;SHT30;58277;47.316;18.908;2023-02-11T10:28:31;6.81;49.02
70708;SHT30;58277;47.316;18.908;2023-02-11T10:33:30;6.46;51.12
70708;SHT30;58277;47.316;18.908;2023-02-11T10:35:55;6.40;51.52
70708;SHT30;58277;47.316;18.908;2023-02-11T10:38:18;6.06;52.65
70708;SHT30;58277;47.316;18.908;2023-02-11T10:40:41;6.04;53.20
70708;SHT30;58277;47.316;18.908;2023-02-11T10:43:09;6.18;52.77
70708;SHT30;58277;47.316;18.908;2023-02-11T10:45:36;6.22;52.40
70708;SHT30;58277;47.316;18.908;2023-02-11T10:48:01;6.16;53.42
70708;SHT30;58277;47.316;18.908;2023-02-11T10:50:28;6.05;53.92
70708;SHT30;58277;47.316;18.908;2023-02-11T10:53:19;5.68;53.67
70708;SHT30;58277;47.316;18.908;2023-02-11T10:55:49;5.73;53.37
70708;SHT30;58277;47.316;18.908;2023-02-11T10:58:22;5.68;53.68
70708;SHT30;58277;47.316;18.908;2023-02-11T11:00:50;5.64;54.47
70708;SHT30;58277;47.316;18.908;2023-02-11T11:03:19;5.60;55.09
70708;SHT30;58277;47.316;18.908;2023-02-11T11:05:49;5.81;54.56
70708;SHT30;58277;47.316;18.908;2023-02-11T11:08:12;5.98;53.99
70708;SHT30;58277;47.316;18.908;2023-02-11T11:10:38;6.33;53.41
70708;SHT30;58277;47.316;18.908;2023-02-11T11:13:32;6.57;53.29
70708;SHT30;58277;47.316;18.908;2023-02-11T11:18:33;7.01;51.51
70708;SHT30;58277;47.316;18.908;2023-02-11T11:20:59;6.95;50.98
70708;SHT30;58277;47.316;18.908;2023-02-11T11:23:22;7.05;51.47
70708;SHT30;58277;47.316;18.908;2023-02-11T11:26:37;7.28;51.16
70708;SHT30;58277;47.316;18.908;2023-02-11T11:29:00;7.53;50.31
70708;SHT30;58277;47.316;18.908;2023-02-11T11:33:51;7.88;49.92
70708;SHT30;58277;47.316;18.908;2023-02-11T11:36:20;7.60;49.10
70708;SHT30;58277;47.316;18.908;2023-02-11T11:38:49;7.66;48.45
70708;SHT30;58277;47.316;18.908;2023-02-11T11:41:14;7.42;47.88
70708;SHT30;58277;47.316;18.908;2023-02-11T11:43:37;7.50;49.12
70708;SHT30;58277;47.316;18.908;2023-02-11T11:46:00;7.50;49.57
70708;SHT30;58277;47.316;18.908;2023-02-11T11:48:35;7.46;50.05
70708;SHT30;58277;47.316;18.908;2023-02-11T11:51:01;7.64;49.94
70708;SHT30;58277;47.316;18.908;2023-02-11T11:56:21;7.88;50.76
70708;SHT30;58277;47.316;18.908;2023-02-11T11:58:44;8.05;49.68
70708;SHT30;58277;47.316;18.908;2023-02-11T12:01:11;8.08;49.83
70708;SHT30;58277;47.316;18.908;2023-02-11T12:06:42;8.06;49.29
70708;SHT30;58277;47.316;18.908;2023-02-11T12:26:00;9.18;43.86
70708;SHT30;58277;47.316;18.908;2023-02-11T12:28:32;9.32;43.46
70708;SHT30;58277;47.316;18.908;2023-02-11T12:31:12;9.05;43.11
70708;SHT30;58277;47.316;18.908;2023-02-11T12:34:05;8.90;43.63
70708;SHT30;58277;47.316;18.908;2023-02-11T12:39:33;9.04;42.95
70708;SHT30;58277;47.316;18.908;2023-02-11T12:47:54;9.11;42.11
70708;SHT30;58277;47.316;18.908;2023-02-11T12:55:30;8.53;44.17
70708;SHT30;58277;47.316;18.908;2023-02-11T12:58:00;8.71;43.58
70708;SHT30;58277;47.316;18.908;2023-02-11T13:03:11;8.67;43.92
70708;SHT30;58277;47.316;18.908;2023-02-11T13:05:51;8.76;43.77
70708;SHT30;58277;47.316;18.908;2023-02-11T13:08:22;8.67;43.87
70708;SHT30;58277;47.316;18.908;2023-02-11T13:10:51;8.71;43.61
70708;SHT30;58277;47.316;18.908;2023-02-11T13:13:24;8.49;43.66
70708;SHT30;58277;47.316;18.908;2023-02-11T13:15:53;8.25;44.29
70708;SHT30;58277;47.316;18.908;2023-02-11T13:23:54;8.15;45.42
70708;SHT30;58277;47.316;18.908;2023-02-11T13:26:32;8.18;45.28
70708;SHT30;58277;47.316;18.908;2023-02-11T13:31:40;8.70;44.01
70708;SHT30;58277;47.316;18.908;2023-02-11T13:34:22;8.85;43.10
70708;SHT30;58277;47.316;18.908;2023-02-11T13:36:53;8.80;42.91
70708;SHT30;58277;47.316;18.908;2023-02-11T13:39:19;8.97;42.28
70708;SHT30;58277;47.316;18.908;2023-02-11T13:41:43;9.00;42.80
70708;SHT30;58277;47.316;18.908;2023-02-11T13:47:02;8.91;43.55
70708;SHT30;58277;47.316;18.908;2023-02-11T13:51:54;9.03;43.53
70708;SHT30;58277;47.316;18.908;2023-02-11T13:54:38;9.05;43.04
70708;SHT30;58277;47.316;18.908;2023-02-11T13:59:48;8.98;41.72
70708;SHT30;58277;47.316;18.908;2023-02-11T14:02:26;8.94;41.85
70708;SHT30;58277;47.316;18.908;2023-02-11T14:10:52;8.35;42.73
70708;SHT30;58277;47.316;18.908;2023-02-11T14:13:31;8.38;42.92
70708;SHT30;58277;47.316;18.908;2023-02-11T14:16:09;8.16;43.55
70708;SHT30;58277;47.316;18.908;2023-02-11T14:21:14;8.16;43.81
70708;SHT30;58277;47.316;18.908;2023-02-11T14:23:39;8.02;44.30
70708;SHT30;58277;47.316;18.908;2023-02-11T14:28:42;7.76;45.03
70708;SHT30;58277;47.316;18.908;2023-02-11T14:31:13;7.77;45.23
70708;SHT30;58277;47.316;18.908;2023-02-11T14:36:41;7.32;46.40
70708;SHT30;58277;47.316;18.908;2023-02-11T14:39:21;7.20;46.54
70708;SHT30;58277;47.316;18.908;2023-02-11T14:41:47;7.25;46.78
70708;SHT30;58277;47.316;18.908;2023-02-11T14:44:25;7.16;47.02
70708;SHT30;58277;47.316;18.908;2023-02-11T14:46:50;7.16;47.42
70708;SHT30;58277;47.316;18.908;2023-02-11T14:51:46;7.04;47.60
70708;SHT30;58277;47.316;18.908;2023-02-11T14:54:16;6.95;47.41
70708;SHT30;58277;47.316;18.908;2023-02-11T14:56:40;6.95;47.10
70708;SHT30;58277;47.316;18.908;2023-02-11T14:59:16;6.91;47.14
70708;SHT30;58277;47.316;18.908;2023-02-11T15:01:40;6.91;47.21
70708;SHT30;58277;47.316;18.908;2023-02-11T15:04:13;6.80;47.36
70708;SHT30;58277;47.316;18.908;2023-02-11T15:06:46;6.76;47.67
70708;SHT30;58277;47.316;18.908;2023-02-11T15:09:20;6.77;47.87
70708;SHT30;58277;47.316;18.908;2023-02-11T15:11:50;6.80;47.94
70708;SHT30;58277;47.316;18.908;2023-02-11T15:16:41;6.47;49.30
70708;SHT30;58277;47.316;18.908;2023-02-11T15:19:05;6.44;49.44
70708;SHT30;58277;47.316;18.908;2023-02-11T15:21:32;6.40;49.62
70708;SHT30;58277;47.316;18.908;2023-02-11T15:23:58;6.32;50.01
70708;SHT30;58277;47.316;18.908;2023-02-11T15:26:22;6.25;50.68
70708;SHT30;58277;47.316;18.908;2023-02-11T15:28:46;6.25;50.74
70708;SHT30;58277;47.316;18.908;2023-02-11T15:31:15;6.19;51.09
70708;SHT30;58277;47.316;18.908;2023-02-11T15:33:38;6.23;50.55
70708;SHT30;58277;47.316;18.908;2023-02-11T15:36:01;6.15;50.65
70708;SHT30;58277;47.316;18.908;2023-02-11T15:38:24;6.11;50.36
70708;SHT30;58277;47.316;18.908;2023-02-11T15:40:56;6.04;51.05
70708;SHT30;58277;47.316;18.908;2023-02-11T15:43:19;6.05;51.00
70708;SHT30;58277;47.316;18.908;2023-02-11T15:46:00;5.98;51.27
70708;SHT30;58277;47.316;18.908;2023-02-11T15:51:01;6.01;51.21
70708;SHT30;58277;47.316;18.908;2023-02-11T15:53:36;5.98;51.64
70708;SHT30;58277;47.316;18.908;2023-02-11T15:56:16;5.99;51.92
70708;SHT30;58277;47.316;18.908;2023-02-11T15:58:44;5.97;51.95
70708;SHT30;58277;47.316;18.908;2023-02-11T16:01:09;5.94;51.78
70708;SHT30;58277;47.316;18.908;2023-02-11T16:03:33;5.74;52.75
70708;SHT30;58277;47.316;18.908;2023-02-11T16:05:55;5.90;52.16
70708;SHT30;58277;47.316;18.908;2023-02-11T16:10:56;5.77;52.60
70708;SHT30;58277;47.316;18.908;2023-02-11T16:13:20;5.67;52.88
70708;SHT30;58277;47.316;18.908;2023-02-11T16:15:57;5.61;53.07
70708;SHT30;58277;47.316;18.908;2023-02-11T16:18:33;5.71;52.89
70708;SHT30;58277;47.316;18.908;2023-02-11T16:21:02;5.68;53.08
70708;SHT30;58277;47.316;18.908;2023-02-11T16:23:28;5.57;53.66
70708;SHT30;58277;47.316;18.908;2023-02-11T16:26:05;5.65;53.50
70708;SHT30;58277;47.316;18.908;2023-02-11T16:28:30;5.42;54.40
70708;SHT30;58277;47.316;18.908;2023-02-11T16:30:54;5.43;54.56
70708;SHT30;58277;47.316;18.908;2023-02-11T16:33:19;5.56;54.24
70708;SHT30;58277;47.316;18.908;2023-02-11T16:35:42;5.51;54.41
70708;SHT30;58277;47.316;18.908;2023-02-11T16:38:09;5.47;54.54
70708;SHT30;58277;47.316;18.908;2023-02-11T16:40:32;5.30;54.93
70708;SHT30;58277;47.316;18.908;2023-02-11T16:42:55;5.22;54.87
70708;SHT30;58277;47.316;18.908;2023-02-11T16:45:18;5.15;54.86
70708;SHT30;58277;47.316;18.908;2023-02-11T16:47:41;4.92;55.48
70708;SHT30;58277;47.316;18.908;2023-02-11T16:50:07;4.87;55.72
70708;SHT30;58277;47.316;18.908;2023-02-11T16:52:31;4.87;55.47
70708;SHT30;58277;47.316;18.908;2023-02-11T16:54:54;4.81;55.46
70708;SHT30;58277;47.316;18.908;2023-02-11T16:57:19;4.84;55.13
70708;SHT30;58277;47.316;18.908;2023-02-11T16:59:43;4.82;55.24
70708;SHT30;58277;47.316;18.908;2023-02-11T17:02:20;4.84;55.05
70708;SHT30;58277;47.316;18.908;2023-02-11T17:04:45;4.87;54.83
70708;SHT30;58277;47.316;18.908;2023-02-11T17:07:08;4.85;54.93
70708;SHT30;58277;47.316;18.908;2023-02-11T17:09:31;4.88;54.66
70708;SHT30;58277;47.316;18.908;2023-02-11T17:11:54;4.88;54.50
70708;SHT30;58277;47.316;18.908;2023-02-11T17:14:18;4.96;54.36
70708;SHT30;58277;47.316;18.908;2023-02-11T17:16:41;4.89;54.84
70708;SHT30;58277;47.316;18.908;2023-02-11T17:19:04;4.84;54.76
70708;SHT30;58277;47.316;18.908;2023-02-11T17:21:28;4.84;55.03
70708;SHT30;58277;47.316;18.908;2023-02-11T17:23:53;5.04;54.40
70708;SHT30;58277;47.316;18.908;2023-02-11T17:26:15;4.85;54.93
70708;SHT30;58277;47.316;18.908;2023-02-11T17:28:38;4.85;55.13
70708;SHT30;58277;47.316;18.908;2023-02-11T17:31:06;4.82;55.20
70708;SHT30;58277;47.316;18.908;2023-02-11T17:33:28;4.78;55.50
70708;SHT30;58277;47.316;18.908;2023-02-11T17:35:51;4.74;55.44
70708;SHT30;58277;47.316;18.908;2023-02-11T17:38:15;4.65;55.61
70708;SHT30;58277;47.316;18.908;2023-02-11T17:40:38;4.79;55.27
70708;SHT30;58277;47.316;18.908;2023-02-11T17:43:00;4.79;55.37
70708;SHT30;58277;47.316;18.908;2023-02-11T17:45:23;4.72;55.54
70708;SHT30;58277;47.316;18.908;2023-02-11T17:47:46;4.61;55.82
70708;SHT30;58277;47.316;18.908;2023-02-11T17:50:10;4.56;56.15
70708;SHT30;58277;47.316;18.908;2023-02-11T17:52:33;4.49;56.27